Time;durP1;ratioP1;P1;durP2;ratioP2;P2;SDS_P1;SDS_P2;PMS_P1;PMS_P2;Temp;Humidity;BMP_temperature;BMP_pressure;BME280_temperature;BME280_humidity;BME280_pressure;Samples;Min_cycle;Max_cycle;Signal;HPM_P1;HPM_P2
2022/02/20 00:00:25;;;;;;;2.07;1.20;;;10.00;91.90;;;;;;5097042;28;20252;-90
2022/02/20 00:02:51;;;;;;;1.20;1.10;;;9.90;91.90;;;;;;5079310;28;20566;-87
2022/02/20 00:05:17;;;;;;;1.70;1.20;;;9.90;92.20;;;;;;5078116;28;20222;-87
2022/02/20 00:07:43;;;;;;;2.83;1.10;;;9.90;92.50;;;;;;5096587;28;20200;-89
2022/02/20 00:10:09;;;;;;;1.20;1.10;;;9.90;92.30;;;;;;5088379;28;20637;-86
2022/02/20 00:12:34;;;;;;;5.37;1.97;;;9.90;92.20;;;;;;5076531;28;20541;-86
2022/02/20 00:15:00;;;;;;;1.50;1.37;;;9.90;92.10;;;;;;5077700;28;20417;-86
2022/02/20 00:17:26;;;;;;;5.20;1.53;;;9.90;92.10;;;;;;5095780;28;20693;-90
2022/02/20 00:19:51;;;;;;;5.43;1.40;;;9.90;92.00;;;;;;5096005;28;20541;-86
2022/02/20 00:22:17;;;;;;;3.50;1.57;;;9.90;92.10;;;;;;5077336;28;20196;-89
2022/02/20 00:24:43;;;;;;;3.40;1.30;;;9.90;92.40;;;;;;5094993;28;20263;-90
2022/02/20 00:27:09;;;;;;;2.50;1.20;;;9.80;92.10;;;;;;5094841;28;20607;-89
2022/02/20 00:29:34;;;;;;;1.37;1.10;;;9.80;92.00;;;;;;5076856;28;20200;-90
2022/02/20 00:32:00;;;;;;;3.93;1.30;;;9.80;92.00;;;;;;5095636;28;20164;-87
2022/02/20 00:34:26;;;;;;;3.00;1.50;;;9.80;92.10;;;;;;5077097;28;20188;-90
2022/02/20 00:36:51;;;;;;;3.73;1.10;;;9.80;92.10;;;;;;5076376;28;20238;-86
2022/02/20 00:39:17;;;;;;;1.93;1.30;;;9.80;92.00;;;;;;5094651;28;20188;-86
2022/02/20 00:41:43;;;;;;;2.13;1.10;;;9.80;92.00;;;;;;5076860;28;20208;-89
2022/02/20 00:44:09;;;;;;;2.30;1.20;;;9.80;91.90;;;;;;5095602;28;20728;-88
2022/02/20 00:46:34;;;;;;;5.47;1.00;;;9.70;92.00;;;;;;5076890;28;20241;-90
2022/02/20 00:49:00;;;;;;;1.23;1.10;;;9.70;92.20;;;;;;5100878;28;20283;-89
2022/02/20 00:51:25;;;;;;;0.90;0.60;;;9.70;91.90;;;;;;5079332;28;20180;-86
2022/02/20 00:53:51;;;;;;;2.60;1.30;;;9.70;92.10;;;;;;5078230;28;20220;-90
2022/02/20 00:56:17;;;;;;;2.40;1.30;;;9.70;92.10;;;;;;5078846;28;20204;-89
2022/02/20 00:58:43;;;;;;;1.90;1.27;;;9.70;92.00;;;;;;5079452;28;20676;-89
2022/02/20 01:01:09;;;;;;;2.90;1.20;;;9.70;92.00;;;;;;5099202;28;20168;-90
2022/02/20 01:03:35;;;;;;;1.77;1.10;;;9.60;92.00;;;;;;5094564;28;20249;-86
2022/02/20 01:06:01;;;;;;;3.13;1.20;;;9.60;92.00;;;;;;5076473;28;20180;-89
2022/02/20 01:08:26;;;;;;;1.30;0.97;;;9.60;92.10;;;;;;5094322;28;20665;-86
2022/02/20 01:10:52;;;;;;;1.77;1.20;;;9.60;91.90;;;;;;5076282;28;20465;-90
2022/02/20 01:13:18;;;;;;;3.07;1.77;;;9.50;91.90;;;;;;5081246;28;20292;-89
2022/02/20 01:15:43;;;;;;;2.33;0.83;;;9.50;91.90;;;;;;5093353;28;20200;-90
2022/02/20 01:18:09;;;;;;;2.87;0.97;;;9.40;91.80;;;;;;5093600;28;20583;-86
2022/02/20 01:20:35;;;;;;;2.80;1.37;;;9.40;91.80;;;;;;5093430;28;20220;-90
2022/02/20 01:23:01;;;;;;;2.73;1.60;;;9.40;91.80;;;;;;5112662;28;20665;-89
2022/02/20 01:25:26;;;;;;;1.33;1.20;;;9.40;91.90;;;;;;5099443;28;20791;-89
2022/02/20 01:27:52;;;;;;;3.13;1.20;;;9.40;91.80;;;;;;5099291;28;20196;-90
2022/02/20 01:30:18;;;;;;;4.00;1.30;;;9.40;91.90;;;;;;5099019;28;20181;-86
2022/02/20 01:32:44;;;;;;;3.83;1.07;;;9.40;92.10;;;;;;5116706;28;20235;-86
2022/02/20 01:35:10;;;;;;;2.50;1.13;;;9.40;91.80;;;;;;5100207;28;20595;-89
2022/02/20 01:37:35;;;;;;;1.92;1.02;;;9.40;92.00;;;;;;5103216;28;20207;-90
2022/02/20 01:40:01;;;;;;;1.20;1.00;;;9.40;91.80;;;;;;5111303;28;20192;-86
2022/02/20 01:42:27;;;;;;;1.30;0.90;;;9.40;91.80;;;;;;5097899;28;20203;-90
2022/02/20 01:44:53;;;;;;;1.80;1.40;;;9.40;91.80;;;;;;5097889;28;20180;-89
2022/02/20 01:47:19;;;;;;;2.63;1.23;;;9.40;91.80;;;;;;5099424;28;20188;-90
2022/02/20 01:49:45;;;;;;;2.50;1.20;;;9.40;92.10;;;;;;5098846;28;20533;-86
2022/02/20 01:52:11;;;;;;;2.03;1.00;;;9.40;92.00;;;;;;5098816;28;20195;-86
2022/02/20 01:54:37;;;;;;;2.20;0.95;;;9.40;91.90;;;;;;5097456;28;20413;-86
2022/02/20 01:57:04;;;;;;;2.33;1.20;;;9.40;92.30;;;;;;5099169;28;20827;-90
2022/02/20 01:59:30;;;;;;;1.90;1.40;;;9.40;92.50;;;;;;5097620;28;20184;-89
2022/02/20 02:01:56;;;;;;;4.00;2.00;;;9.30;92.00;;;;;;5098397;28;20188;-90
2022/02/20 02:04:23;;;;;;;4.10;2.20;;;9.30;92.00;;;;;;5098232;28;20237;-89
2022/02/20 02:06:49;;;;;;;3.17;1.52;;;9.30;92.30;;;;;;5097537;28;20271;-87
2022/02/20 02:09:17;;;;;;;5.75;3.10;;;9.30;92.30;;;;;;5098623;28;20176;-89
2022/02/20 02:11:44;;;;;;;102.75;38.72;;;9.30;92.50;;;;;;5097445;28;20188;-86
2022/02/20 02:14:10;;;;;;;4.63;2.67;;;9.30;92.40;;;;;;5097219;28;20724;-89
2022/02/20 02:16:36;;;;;;;8.77;3.83;;;9.40;92.40;;;;;;5115029;28;20184;-89
2022/02/20 02:19:03;;;;;;;3.63;1.60;;;9.30;92.40;;;;;;5101593;28;20478;-87
2022/02/20 02:21:29;;;;;;;3.05;2.20;;;9.30;92.60;;;;;;5102642;28;20197;-87
2022/02/20 02:23:54;;;;;;;2.33;1.67;;;9.30;92.60;;;;;;5100038;28;20237;-86
2022/02/20 02:26:21;;;;;;;4.13;2.50;;;9.20;92.60;;;;;;5096122;28;20180;-87
2022/02/20 02:28:46;;;;;;;4.93;3.00;;;9.20;92.60;;;;;;5097806;28;20201;-86
2022/02/20 02:31:15;;;;;;;4.43;2.20;;;9.20;92.80;;;;;;5098045;28;20508;-89
2022/02/20 02:33:41;;;;;;;4.20;1.70;;;9.10;92.90;;;;;;5096458;28;20208;-89
2022/02/20 02:36:08;;;;;;;4.30;2.00;;;9.10;93.10;;;;;;5113774;28;20225;-86
2022/02/20 02:38:34;;;;;;;5.10;1.95;;;9.00;93.10;;;;;;5097126;28;20228;-86
2022/02/20 02:41:04;;;;;;;1.27;1.10;;;9.00;93.30;;;;;;5098141;28;20594;-87
2022/02/20 02:43:31;;;;;;;2.03;1.25;;;9.00;93.40;;;;;;5097975;28;20232;-90
2022/02/20 02:45:57;;;;;;;5.00;2.50;;;9.00;93.40;;;;;;5097806;28;20173;-89
2022/02/20 02:48:23;;;;;;;7.35;2.80;;;9.00;93.50;;;;;;5097587;28;20200;-90
2022/02/20 02:50:49;;;;;;;2.50;1.50;;;9.00;93.80;;;;;;5125070;28;20183;-90
2022/02/20 02:53:15;;;;;;;8.43;6.13;;;8.90;94.00;;;;;;5101372;28;20242;-87
2022/02/20 02:55:50;;;;;;;8.90;7.00;;;9.00;93.60;;;;;;5097533;28;20185;-86
2022/02/20 02:58:21;;;;;;;7.70;5.22;;;9.00;93.70;;;;;;5103291;28;20462;-87
2022/02/20 03:00:48;;;;;;;7.75;5.70;;;9.00;94.00;;;;;;5096663;28;20169;-90
2022/02/20 03:03:14;;;;;;;4.70;2.47;;;8.90;94.30;;;;;;5096977;28;20275;-89
2022/02/20 03:05:40;;;;;;;5.63;2.17;;;8.80;94.80;;;;;;5096348;28;20222;-86
2022/02/20 03:08:06;;;;;;;3.43;1.93;;;8.80;95.40;;;;;;5096830;28;20200;-90
2022/02/20 03:10:32;;;;;;;2.73;1.90;;;8.70;95.80;;;;;;5095483;28;20992;-86
2022/02/20 03:12:57;;;;;;;2.50;2.00;;;8.60;96.40;;;;;;5101191;28;20285;-86
2022/02/20 03:15:23;;;;;;;3.13;2.17;;;8.50;96.80;;;;;;5106156;28;20901;-87
2022/02/20 03:17:49;;;;;;;5.63;4.60;;;8.40;97.20;;;;;;5100832;28;20654;-86
2022/02/20 03:20:15;;;;;;;7.40;4.10;;;8.30;97.60;;;;;;5106393;28;20183;-89
2022/02/20 03:22:40;;;;;;;6.97;4.10;;;8.30;98.00;;;;;;5102399;28;20196;-90
2022/02/20 03:25:06;;;;;;;3.57;2.50;;;8.20;98.30;;;;;;5103328;28;20375;-89
2022/02/20 03:27:33;;;;;;;2.55;1.70;;;8.10;98.70;;;;;;5102182;28;20200;-89
2022/02/20 03:29:59;;;;;;;5.88;2.65;;;8.10;99.30;;;;;;5096131;28;20183;-86
2022/02/20 03:32:24;;;;;;;2.90;2.00;;;8.00;99.70;;;;;;5096647;28;20200;-86
2022/02/20 03:34:50;;;;;;;4.03;2.50;;;7.90;99.90;;;;;;5096132;28;20184;-89
2022/02/20 03:37:17;;;;;;;5.73;2.20;;;7.80;99.90;;;;;;5096827;28;20235;-88
2022/02/20 03:39:43;;;;;;;4.97;2.03;;;7.70;99.90;;;;;;5096777;28;20180;-89
2022/02/20 03:42:09;;;;;;;2.27;1.50;;;7.70;99.90;;;;;;5096531;28;20283;-90
2022/02/20 03:44:35;;;;;;;4.65;2.30;;;7.60;99.90;;;;;;5097434;28;20196;-88
2022/02/20 03:47:00;;;;;;;3.07;2.60;;;7.60;99.90;;;;;;5097374;28;20188;-86
2022/02/20 03:49:26;;;;;;;4.60;2.53;;;7.60;99.90;;;;;;5103785;28;20192;-89
2022/02/20 03:51:52;;;;;;;8.10;2.77;;;7.50;99.90;;;;;;5102958;28;20215;-90
2022/02/20 03:54:17;;;;;;;7.33;2.30;;;7.50;99.90;;;;;;5094559;28;20650;-89
2022/02/20 03:56:43;;;;;;;3.67;2.30;;;7.40;99.90;;;;;;5097938;28;20183;-89
2022/02/20 03:59:09;;;;;;;2.23;1.93;;;7.50;99.90;;;;;;5095309;28;20636;-88
2022/02/20 04:01:34;;;;;;;3.53;2.23;;;7.50;99.90;;;;;;5094682;28;20176;-86
2022/02/20 04:04:00;;;;;;;3.17;1.83;;;7.50;99.90;;;;;;5096143;28;20281;-87
2022/02/20 04:06:26;;;;;;;4.00;1.70;;;7.50;99.90;;;;;;5095702;28;20207;-90
2022/02/20 04:08:51;;;;;;;4.70;2.20;;;7.50;99.90;;;;;;5095511;28;20196;-86
2022/02/20 04:11:17;;;;;;;2.50;1.73;;;7.40;99.90;;;;;;5096544;28;20177;-86
2022/02/20 04:13:43;;;;;;;2.10;1.57;;;7.40;99.90;;;;;;5095165;28;20266;-90
2022/02/20 04:16:09;;;;;;;2.60;1.87;;;7.40;99.90;;;;;;5095573;28;20520;-86
2022/02/20 04:18:34;;;;;;;3.17;1.60;;;7.40;99.90;;;;;;5097059;28;20462;-86
2022/02/20 04:21:00;;;;;;;3.20;2.00;;;7.40;99.90;;;;;;5095437;28;20218;-86
2022/02/20 04:23:30;;;;;;;3.23;1.87;;;7.40;99.90;;;;;;5112406;28;20672;-85
2022/02/20 04:26:01;;;;;;;5.80;2.33;;;7.30;99.90;;;;;;5095207;28;20609;-86
2022/02/20 04:28:30;;;;;;;6.68;2.25;;;7.30;99.90;;;;;;5104381;28;20193;-85
2022/02/20 04:30:56;;;;;;;2.65;2.08;;;7.30;99.90;;;;;;5093496;28;20168;-87
2022/02/20 04:33:22;;;;;;;5.73;2.37;;;7.30;99.90;;;;;;5093616;28;20204;-86
2022/02/20 04:35:48;;;;;;;3.22;2.15;;;7.30;99.90;;;;;;5093989;28;20636;-90
2022/02/20 04:38:14;;;;;;;5.10;2.20;;;7.20;99.90;;;;;;5094219;28;20223;-89
2022/02/20 04:40:40;;;;;;;6.33;2.80;;;7.20;99.90;;;;;;5093420;28;20532;-90
2022/02/20 04:43:05;;;;;;;3.30;1.63;;;7.20;99.90;;;;;;5093617;28;20243;-86
2022/02/20 04:45:31;;;;;;;2.80;2.13;;;7.20;99.90;;;;;;5093365;28;20195;-86
2022/02/20 04:47:57;;;;;;;3.90;2.30;;;7.20;99.90;;;;;;5095615;28;20200;-86
2022/02/20 04:50:23;;;;;;;4.43;1.73;;;7.10;99.90;;;;;;5094056;28;20492;-86
2022/02/20 04:52:48;;;;;;;6.60;1.87;;;7.10;99.90;;;;;;5093961;28;20199;-87
2022/02/20 04:55:14;;;;;;;1.70;1.60;;;7.00;99.90;;;;;;5094070;28;20624;-88
2022/02/20 04:57:41;;;;;;;2.40;1.87;;;7.00;99.90;;;;;;5099210;28;20224;-90
2022/02/20 05:00:09;;;;;;;4.38;1.90;;;7.00;99.90;;;;;;5096382;28;20177;-89
2022/02/20 05:02:35;;;;;;;4.20;2.30;;;7.10;99.90;;;;;;5094981;28;20203;-86
2022/02/20 05:05:00;;;;;;;3.67;2.10;;;7.10;99.90;;;;;;5096045;28;20180;-86
2022/02/20 05:07:26;;;;;;;3.50;2.07;;;7.00;99.90;;;;;;5099413;28;20202;-87
2022/02/20 05:09:52;;;;;;;5.50;2.10;;;7.00;99.90;;;;;;5096017;28;20180;-86
2022/02/20 05:12:17;;;;;;;3.67;1.87;;;7.00;99.90;;;;;;5094770;28;20196;-90
2022/02/20 05:14:43;;;;;;;4.17;2.50;;;6.90;99.90;;;;;;5092812;28;20224;-89
2022/02/20 05:17:11;;;;;;;4.27;2.80;;;6.90;99.90;;;;;;5093189;28;20243;-90
2022/02/20 05:19:37;;;;;;;6.13;3.65;;;6.90;99.90;;;;;;5093517;28;20213;-89
2022/02/20 05:22:03;;;;;;;7.70;5.10;;;6.90;99.90;;;;;;5093224;28;20622;-86
2022/02/20 05:24:29;;;;;;;7.83;3.50;;;6.90;99.90;;;;;;5094512;28;20211;-90
2022/02/20 05:26:54;;;;;;;2.00;1.80;;;6.90;99.90;;;;;;5093473;28;20765;-89
2022/02/20 05:29:20;;;;;;;2.80;1.60;;;6.90;99.90;;;;;;5095320;28;20252;-89
2022/02/20 05:31:46;;;;;;;4.97;2.30;;;6.90;99.90;;;;;;5094813;28;20664;-90
2022/02/20 05:34:11;;;;;;;3.83;2.67;;;6.90;99.90;;;;;;5094629;28;20169;-90
2022/02/20 05:36:37;;;;;;;3.60;2.87;;;6.90;99.90;;;;;;5093692;28;20172;-87
2022/02/20 05:39:03;;;;;;;3.10;2.30;;;6.90;99.90;;;;;;5094453;28;20204;-89
2022/02/20 05:41:29;;;;;;;2.83;2.53;;;6.90;99.90;;;;;;5094888;28;20616;-90
2022/02/20 05:43:55;;;;;;;8.33;6.60;;;6.90;99.90;;;;;;5111700;28;20196;-87
2022/02/20 05:46:21;;;;;;;24.23;20.50;;;6.90;99.90;;;;;;5095995;28;20204;-86
2022/02/20 05:48:46;;;;;;;141.60;74.95;;;6.90;99.90;;;;;;5098002;28;20649;-89
2022/02/20 05:51:12;;;;;;;83.93;49.90;;;6.90;99.90;;;;;;5093918;28;20181;-86
2022/02/20 05:53:38;;;;;;;11.33;7.57;;;6.80;99.90;;;;;;5093758;28;20560;-89
2022/02/20 05:56:04;;;;;;;3.77;2.70;;;6.80;99.90;;;;;;5093043;28;20264;-86
2022/02/20 05:58:31;;;;;;;4.88;4.30;;;6.80;99.90;;;;;;5093667;28;20216;-90
2022/02/20 06:00:58;;;;;;;6.38;3.70;;;6.80;99.90;;;;;;5092983;28;20173;-90
2022/02/20 06:03:23;;;;;;;3.67;2.60;;;6.80;99.90;;;;;;5093755;28;20193;-86
2022/02/20 06:05:49;;;;;;;6.30;3.87;;;6.80;99.90;;;;;;5092688;28;20201;-87
2022/02/20 06:08:15;;;;;;;8.33;6.70;;;6.80;99.90;;;;;;5109682;28;20196;-90
2022/02/20 06:10:40;;;;;;;4.30;3.53;;;6.70;99.90;;;;;;5095478;28;20176;-89
2022/02/20 06:13:07;;;;;;;8.00;6.00;;;6.70;99.90;;;;;;5096390;28;20704;-89
2022/02/20 06:15:33;;;;;;;4.88;4.00;;;6.70;99.90;;;;;;5097571;28;20168;-86
2022/02/20 06:17:59;;;;;;;4.10;3.70;;;6.70;99.90;;;;;;5096352;28;20223;-90
2022/02/20 06:20:25;;;;;;;4.70;3.45;;;6.70;99.90;;;;;;5097334;28;20252;-90
2022/02/20 06:22:53;;;;;;;10.55;7.53;;;6.80;99.90;;;;;;5096631;28;20212;-86
2022/02/20 06:25:19;;;;;;;7.85;5.45;;;6.80;99.90;;;;;;5096046;28;20268;-86
2022/02/20 06:27:45;;;;;;;20.20;6.75;;;6.70;99.90;;;;;;5097013;28;20206;-90
2022/02/20 06:30:11;;;;;;;4.65;3.35;;;6.70;99.90;;;;;;5098274;28;20172;-89
2022/02/20 06:32:36;;;;;;;4.27;3.87;;;6.70;99.90;;;;;;5098405;28;20201;-86
2022/02/20 06:35:02;;;;;;;37.37;17.80;;;6.70;99.90;;;;;;5102894;28;20417;-87
2022/02/20 06:37:28;;;;;;;103.50;50.50;;;6.80;99.90;;;;;;5100008;28;20231;-86
2022/02/20 06:39:53;;;;;;;44.13;27.63;;;6.70;99.90;;;;;;5096714;28;20424;-86
2022/02/20 06:42:19;;;;;;;18.73;11.77;;;6.80;99.90;;;;;;5096385;28;20200;-86
2022/02/20 06:44:45;;;;;;;3.80;3.30;;;6.80;99.90;;;;;;5097754;28;20169;-86
2022/02/20 06:47:11;;;;;;;4.90;3.57;;;6.90;99.90;;;;;;5096712;28;20287;-89
2022/02/20 06:49:37;;;;;;;7.30;2.63;;;6.90;99.90;;;;;;5097296;28;20259;-86
2022/02/20 06:52:03;;;;;;;4.30;1.97;;;6.90;99.90;;;;;;5095946;28;20287;-89
2022/02/20 06:54:29;;;;;;;3.42;1.80;;;7.00;99.90;;;;;;5097837;28;20401;-90
2022/02/20 06:56:56;;;;;;;3.10;2.27;;;7.00;99.90;;;;;;5097750;28;20255;-89
2022/02/20 06:59:25;;;;;;;4.10;3.67;;;7.00;99.90;;;;;;5096750;28;20220;-86
2022/02/20 07:01:51;;;;;;;3.78;2.85;;;7.00;99.90;;;;;;5096786;28;20180;-86
2022/02/20 07:04:17;;;;;;;2.33;1.80;;;7.10;99.90;;;;;;5098547;28;20176;-89
2022/02/20 07:06:44;;;;;;;2.70;2.33;;;7.10;99.90;;;;;;5097274;28;20611;-89
2022/02/20 07:09:11;;;;;;;7.13;4.13;;;7.10;99.90;;;;;;5098817;28;20409;-86
2022/02/20 07:11:37;;;;;;;8.32;6.47;;;7.10;99.90;;;;;;5098730;28;20233;-86
2022/02/20 07:14:04;;;;;;;9.20;6.45;;;7.10;99.90;;;;;;5097908;28;20232;-86
2022/02/20 07:16:30;;;;;;;5.35;4.85;;;7.10;99.90;;;;;;5096036;28;20303;-86
2022/02/20 07:18:56;;;;;;;5.07;4.03;;;7.10;99.90;;;;;;5095749;28;20219;-86
2022/02/20 07:21:24;;;;;;;5.77;4.03;;;7.00;99.90;;;;;;5094101;28;20181;-87
2022/02/20 07:23:50;;;;;;;4.90;4.35;;;7.00;99.90;;;;;;5094809;28;20283;-85
2022/02/20 07:26:16;;;;;;;5.70;4.32;;;7.00;99.90;;;;;;5096720;28;20195;-86
2022/02/20 07:28:41;;;;;;;5.23;3.70;;;7.00;99.90;;;;;;5103417;28;20291;-90
2022/02/20 07:31:07;;;;;;;4.97;2.73;;;7.10;99.90;;;;;;5097375;28;20772;-90
2022/02/20 07:33:33;;;;;;;4.30;3.40;;;7.10;99.90;;;;;;5095173;28;20597;-86
2022/02/20 07:35:58;;;;;;;5.90;3.10;;;7.10;99.90;;;;;;5096133;28;20545;-86
2022/02/20 07:38:24;;;;;;;4.17;2.20;;;7.20;99.90;;;;;;5096368;28;20250;-90
2022/02/20 07:40:51;;;;;;;5.38;4.50;;;7.30;99.90;;;;;;5121798;28;20180;-89
2022/02/20 07:43:16;;;;;;;7.57;4.80;;;7.40;99.90;;;;;;5097122;28;20212;-90
2022/02/20 07:45:42;;;;;;;4.73;2.90;;;7.60;99.90;;;;;;5100092;28;20256;-89
2022/02/20 07:48:08;;;;;;;5.17;4.10;;;7.70;99.90;;;;;;5096335;28;20196;-86
2022/02/20 07:50:36;;;;;;;4.70;4.20;;;7.90;99.90;;;;;;5101107;28;20179;-90
2022/02/20 07:53:04;;;;;;;5.68;5.18;;;8.10;99.90;;;;;;5110099;28;20197;-90
2022/02/20 07:55:30;;;;;;;3.78;2.22;;;8.40;99.90;;;;;;5096026;28;20172;-89
2022/02/20 07:57:56;;;;;;;3.53;2.10;;;8.70;99.90;;;;;;5095129;28;20226;-90
2022/02/20 08:00:33;;;;;;;3.40;3.10;;;9.00;99.90;;;;;;5111928;28;20183;-89
2022/02/20 08:03:02;;;;;;;5.43;3.70;;;9.20;99.90;;;;;;5095251;28;20192;-90
2022/02/20 08:05:28;;;;;;;6.57;2.60;;;9.30;99.90;;;;;;5096144;28;20168;-86
2022/02/20 08:07:55;;;;;;;7.30;6.57;;;9.40;99.90;;;;;;5094527;28;20211;-87
2022/02/20 08:10:21;;;;;;;8.48;5.35;;;9.40;99.90;;;;;;5095269;28;20184;-86
2022/02/20 08:12:47;;;;;;;7.45;5.22;;;9.70;99.90;;;;;;5094707;28;20758;-90
2022/02/20 08:15:13;;;;;;;5.65;3.83;;;10.10;99.90;;;;;;5095417;28;20176;-86
2022/02/20 08:17:46;;;;;;;3.80;2.85;;;10.90;99.90;;;;;;5096098;28;20216;-89
2022/02/20 08:20:13;;;;;;;9.75;4.68;;;11.90;99.90;;;;;;5100776;28;20637;-87
2022/02/20 08:22:39;;;;;;;5.72;2.90;;;12.90;99.90;;;;;;5099902;28;20534;-87
2022/02/20 08:25:05;;;;;;;5.65;2.97;;;13.70;99.90;;;;;;5107373;28;20194;-90
2022/02/20 08:27:34;;;;;;;7.20;3.40;;;14.60;99.90;;;;;;5100303;28;20211;-89
2022/02/20 08:29:59;;;;;;;5.23;3.77;;;15.30;99.90;;;;;;5095236;28;20176;-90
2022/02/20 08:32:25;;;;;;;6.93;3.97;;;15.80;99.90;;;;;;5111945;28;20456;-90
2022/02/20 08:34:51;;;;;;;5.97;3.60;;;16.50;98.40;;;;;;5095446;28;20270;-87
2022/02/20 08:37:20;;;;;;;1.57;1.47;;;17.10;96.50;;;;;;5094751;28;20571;-87
2022/02/20 08:39:45;;;;;;;3.63;2.00;;;17.60;94.70;;;;;;5094555;28;20473;-90
2022/02/20 08:42:11;;;;;;;5.87;3.40;;;18.00;93.00;;;;;;5095938;28;20456;-87
2022/02/20 08:44:37;;;;;;;3.97;2.43;;;18.40;91.80;;;;;;5094515;28;20223;-90
2022/02/20 08:47:04;;;;;;;3.63;2.43;;;18.90;90.30;;;;;;5095724;28;20207;-87
2022/02/20 08:49:30;;;;;;;3.13;1.70;;;19.10;88.80;;;;;;5095457;28;20420;-87
2022/02/20 08:51:56;;;;;;;3.17;1.77;;;19.30;87.70;;;;;;5111519;28;20432;-91
2022/02/20 08:54:22;;;;;;;1.90;1.47;;;19.70;86.20;;;;;;5101035;28;20417;-90
2022/02/20 08:56:48;;;;;;;4.17;1.97;;;20.10;83.50;;;;;;5103247;28;20417;-87
2022/02/20 08:59:13;;;;;;;1.93;1.60;;;20.40;81.60;;;;;;5093492;28;20458;-87
2022/02/20 09:01:39;;;;;;;3.63;2.10;;;20.40;81.70;;;;;;5093119;28;20209;-87
2022/02/20 09:04:05;;;;;;;1.33;1.23;;;20.50;80.70;;;;;;5094366;28;20204;-91
2022/02/20 09:06:32;;;;;;;2.90;1.47;;;20.60;79.00;;;;;;5093041;28;20185;-87
2022/02/20 09:08:59;;;;;;;6.73;1.40;;;20.50;78.90;;;;;;5093180;28;20466;-87
2022/02/20 09:11:26;;;;;;;1.77;1.47;;;20.70;77.70;;;;;;5093039;28;20414;-88
2022/02/20 09:13:52;;;;;;;4.47;1.80;;;20.80;77.20;;;;;;5093900;28;20469;-86
2022/02/20 09:16:22;;;;;;;2.50;1.30;;;20.90;76.80;;;;;;5076054;28;20910;-91
2022/02/20 09:18:47;;;;;;;3.40;1.87;;;21.10;76.50;;;;;;5075598;28;20531;-87
2022/02/20 09:21:14;;;;;;;2.90;1.20;;;21.20;75.60;;;;;;5076454;28;21006;-87
2022/02/20 09:23:39;;;;;;;5.00;1.87;;;21.20;74.70;;;;;;5092994;28;20207;-91
2022/02/20 09:26:06;;;;;;;3.70;2.30;;;21.20;75.00;;;;;;5076587;28;20934;-87
2022/02/20 09:28:32;;;;;;;2.03;1.43;;;21.20;74.60;;;;;;5095798;28;20203;-89
2022/02/20 09:30:59;;;;;;;2.00;1.40;;;21.10;74.70;;;;;;5097002;28;20407;-90
2022/02/20 09:33:25;;;;;;;3.13;1.30;;;21.10;74.40;;;;;;5076819;28;20501;-90
2022/02/20 09:35:51;;;;;;;5.10;1.20;;;21.30;73.90;;;;;;5076703;28;20456;-87
2022/02/20 09:38:17;;;;;;;1.20;1.10;;;21.40;73.80;;;;;;5094728;28;20562;-87
2022/02/20 09:40:44;;;;;;;2.10;1.20;;;21.40;73.60;;;;;;5094814;28;20225;-91
2022/02/20 09:43:14;;;;;;;3.67;2.70;;;21.20;74.10;;;;;;5095706;28;20476;-91
2022/02/20 09:45:45;;;;;;;1.27;1.17;;;21.10;74.60;;;;;;5098370;28;20411;-86
2022/02/20 09:48:12;;;;;;;1.70;0.93;;;20.90;75.20;;;;;;5081860;28;20447;-91
2022/02/20 09:50:38;;;;;;;1.10;1.00;;;20.80;74.80;;;;;;5099107;28;20443;-88
2022/02/20 09:53:04;;;;;;;2.90;1.27;;;20.50;74.80;;;;;;5099064;28;20437;-87
2022/02/20 09:55:30;;;;;;;7.17;3.90;;;20.40;75.80;;;;;;5081009;28;20560;-91
2022/02/20 09:57:58;;;;;;;3.47;2.30;;;20.10;75.20;;;;;;5124779;28;20223;-91
2022/02/20 10:00:24;;;;;;;2.57;1.90;;;19.70;76.30;;;;;;5114687;28;20191;-87
2022/02/20 10:02:50;;;;;;;1.93;1.30;;;19.60;76.50;;;;;;5117021;28;20449;-87
2022/02/20 10:05:19;;;;;;;5.60;2.73;;;19.40;75.60;;;;;;5115183;28;20168;-90
2022/02/20 10:07:46;;;;;;;3.53;1.30;;;19.20;76.00;;;;;;5080548;28;20212;-90
2022/02/20 10:10:20;;;;;;;4.10;1.50;;;19.20;76.20;;;;;;5098237;28;20426;-91
2022/02/20 10:13:04;;;;;;;4.00;1.50;;;19.20;75.90;;;;;;5082669;28;20856;-87
2022/02/20 10:15:40;;;;;;;4.80;1.80;;;19.20;76.20;;;;;;5097901;28;20433;-86
2022/02/20 10:18:13;;;;;;;2.53;1.67;;;19.10;76.10;;;;;;5113225;28;20476;-90
2022/02/20 10:20:39;;;;;;;14.40;5.77;;;18.90;76.20;;;;;;5097217;28;20444;-90
2022/02/20 10:23:08;;;;;;;19.70;7.40;;;18.50;76.50;;;;;;5111989;28;20471;-91
2022/02/20 10:25:34;;;;;;;343.73;153.30;;;18.10;77.60;;;;;;5111313;28;20409;-87
2022/02/20 10:28:04;;;;;;;3.27;2.97;;;17.90;78.80;;;;;;5078501;28;20437;-87
2022/02/20 10:30:32;;;;;;;2.77;1.73;;;17.70;79.50;;;;;;5113133;28;20420;-86
2022/02/20 10:33:15;;;;;;;1.83;1.60;;;17.50;80.60;;;;;;5112983;28;20961;-87
2022/02/20 10:35:54;;;;;;;1.67;1.47;;;17.40;80.40;;;;;;5085371;28;20416;-87
2022/02/20 10:38:22;;;;;;;3.33;1.87;;;17.30;79.60;;;;;;5120588;28;20482;-90
2022/02/20 10:40:52;;;;;;;1.63;1.43;;;17.00;81.10;;;;;;5060250;28;20459;-90
2022/02/20 10:43:37;;;;;;;2.77;2.20;;;16.80;81.80;;;;;;5101650;28;20455;-89
2022/02/20 10:46:16;;;;;;;1.90;1.33;;;16.70;81.30;;;;;;5081093;28;20479;-87
2022/02/20 10:48:45;;;;;;;1.63;1.53;;;16.50;82.60;;;;;;5095789;28;20452;-87
2022/02/20 10:51:13;;;;;;;3.57;1.70;;;16.40;83.90;;;;;;5078521;28;20441;-90
2022/02/20 10:53:39;;;;;;;2.60;1.77;;;16.30;83.10;;;;;;5078101;28;20965;-86
2022/02/20 10:56:05;;;;;;;1.93;1.70;;;16.20;83.50;;;;;;5102745;28;20418;-86
2022/02/20 10:58:33;;;;;;;3.87;2.30;;;16.10;84.00;;;;;;5113081;28;20484;-87
2022/02/20 11:01:02;;;;;;;2.30;2.20;;;16.00;84.60;;;;;;5117809;28;20433;-87
2022/02/20 11:03:33;;;;;;;3.30;2.00;;;15.90;85.10;;;;;;5077838;28;20805;-90
2022/02/20 11:06:00;;;;;;;3.87;2.03;;;15.70;84.80;;;;;;5106540;28;20412;-91
2022/02/20 11:08:28;;;;;;;4.37;2.00;;;15.70;85.70;;;;;;5113605;28;20961;-91
2022/02/20 11:10:55;;;;;;;2.80;1.73;;;15.60;86.40;;;;;;5113496;28;20424;-90
2022/02/20 11:13:22;;;;;;;2.70;2.30;;;15.60;86.80;;;;;;5105038;28;20522;-87
2022/02/20 11:15:51;;;;;;;3.57;3.27;;;15.60;86.60;;;;;;5097115;28;20777;-86
2022/02/20 11:18:19;;;;;;;9.90;7.10;;;15.50;86.20;;;;;;5095063;28;20480;-90
2022/02/20 11:20:47;;;;;;;13.80;8.00;;;15.40;86.50;;;;;;5099798;28;20441;-91
2022/02/20 11:23:21;;;;;;;2.30;2.10;;;15.50;87.70;;;;;;5077132;28;20526;-90
2022/02/20 11:25:49;;;;;;;2.87;2.00;;;15.50;87.20;;;;;;5126358;27;20421;-86
2022/02/20 11:28:16;;;;;;;6.00;4.80;;;15.50;87.40;;;;;;5125259;27;20949;-87
2022/02/20 11:30:43;;;;;;;11.23;8.80;;;15.50;87.00;;;;;;5094808;28;20417;-86
2022/02/20 11:33:11;;;;;;;5.17;4.37;;;15.30;87.30;;;;;;5094811;28;20480;-91
2022/02/20 11:35:42;;;;;;;5.77;3.50;;;15.20;87.40;;;;;;5098552;28;20424;-90
2022/02/20 11:38:13;;;;;;;4.27;3.80;;;15.10;86.40;;;;;;5095690;28;20548;-87
2022/02/20 11:41:08;;;;;;;8.40;7.10;;;15.10;86.90;;;;;;5095145;28;20412;-90
2022/02/20 11:43:39;;;;;;;3.40;3.10;;;15.00;87.80;;;;;;5095242;28;20436;-87
2022/02/20 11:46:14;;;;;;;5.30;3.67;;;15.00;87.70;;;;;;5097482;28;20405;-87
2022/02/20 11:49:02;;;;;;;4.27;3.50;;;14.90;88.30;;;;;;5141469;27;20474;-87
2022/02/20 11:51:31;;;;;;;2.33;1.87;;;14.90;88.10;;;;;;5093651;28;20435;-87
2022/02/20 11:54:18;;;;;;;2.83;2.63;;;14.90;88.30;;;;;;5091675;28;20445;-90
2022/02/20 11:57:04;;;;;;;5.50;4.87;;;14.90;87.70;;;;;;5100100;28;20477;-90
2022/02/20 11:59:30;;;;;;;3.30;3.00;;;14.80;88.00;;;;;;5113585;27;20529;-86
2022/02/20 12:02:25;;;;;;;3.80;3.50;;;14.70;89.30;;;;;;5094659;28;20460;-91
2022/02/20 12:04:51;;;;;;;2.90;2.10;;;14.70;89.80;;;;;;5090885;28;20444;-86
2022/02/20 12:07:37;;;;;;;7.97;7.17;;;14.70;89.20;;;;;;5091588;28;20445;-91
2022/02/20 12:10:21;;;;;;;9.13;5.80;;;14.70;89.60;;;;;;5075132;28;20185;-87
2022/02/20 12:12:49;;;;;;;7.87;5.37;;;14.70;89.70;;;;;;5097347;28;20484;-87
2022/02/20 12:15:27;;;;;;;5.77;4.60;;;14.70;90.00;;;;;;5076838;28;20468;-91
2022/02/20 12:18:22;;;;;;;6.00;4.93;;;14.70;90.20;;;;;;5124372;27;20555;-86
2022/02/20 12:20:51;;;;;;;4.90;3.80;;;14.60;90.80;;;;;;5074245;28;20491;-86
2022/02/20 12:23:31;;;;;;;3.43;2.60;;;14.50;90.10;;;;;;5073969;28;20449;-90
2022/02/20 12:26:03;;;;;;;5.07;4.13;;;14.50;90.20;;;;;;5076979;28;20420;-86
2022/02/20 12:28:37;;;;;;;22.77;12.33;;;14.40;90.40;;;;;;5097054;28;20440;-86
2022/02/20 12:31:09;;;;;;;6.37;4.47;;;14.40;90.70;;;;;;5098039;28;20385;-90
2022/02/20 12:33:37;;;;;;;6.40;5.10;;;14.50;90.60;;;;;;5132188;27;20453;-90
2022/02/20 12:36:06;;;;;;;9.47;8.47;;;14.50;90.60;;;;;;5127435;27;21030;-90
2022/02/20 12:38:33;;;;;;;5.43;4.83;;;14.50;90.70;;;;;;5097226;28;20906;-86
2022/02/20 12:40:59;;;;;;;6.97;5.57;;;14.50;91.10;;;;;;5114599;27;20453;-91
2022/02/20 12:43:25;;;;;;;5.50;4.97;;;14.40;90.90;;;;;;5093694;28;20816;-90
2022/02/20 12:45:51;;;;;;;4.97;4.57;;;14.40;91.20;;;;;;5095214;28;20434;-86
2022/02/20 12:48:18;;;;;;;6.37;4.77;;;14.40;91.40;;;;;;5105610;28;20447;-90
2022/02/20 12:50:45;;;;;;;5.10;4.17;;;14.40;91.30;;;;;;5097283;28;20471;-91
2022/02/20 12:53:10;;;;;;;5.50;4.80;;;14.30;91.40;;;;;;5096257;28;20451;-87